sensor_id;sensor_type;location;lat;lon;timestamp;pressure;altitude;pressure_sealevel;temperature;humidity
77939;BME280;67136;47.546;21.630;2023-11-18T00:00:44;99554.44;;;4.19;100.00
77939;BME280;67136;47.546;21.630;2023-11-18T00:03:47;99557.25;;;4.16;100.00
77939;BME280;67136;47.546;21.630;2023-11-18T00:06:49;99563.53;;;4.12;100.00
77939;BME280;67136;47.546;21.630;2023-11-18T00:09:53;99565.22;;;4.13;100.00
77939;BME280;67136;47.546;21.630;2023-11-18T00:12:58;99572.03;;;4.14;100.00
77939;BME280;67136;47.546;21.630;2023-11-18T00:16:01;99574.94;;;4.10;100.00
77939;BME280;67136;47.546;21.630;2023-11-18T00:19:03;99576.47;;;4.12;100.00
77939;BME280;67136;47.546;21.630;2023-11-18T00:22:08;99582.81;;;4.08;100.00
77939;BME280;67136;47.546;21.630;2023-11-18T00:25:13;99587.97;;;4.08;100.00
77939;BME280;67136;47.546;21.630;2023-11-18T00:28:16;99601.09;;;4.05;100.00
77939;BME280;67136;47.546;21.630;2023-11-18T00:31:21;99598.72;;;4.02;100.00
77939;BME280;67136;47.546;21.630;2023-11-18T00:34:24;99606.38;;;4.04;100.00
77939;BME280;67136;47.546;21.630;2023-11-18T00:37:27;99610.72;;;4.03;100.00
77939;BME280;67136;47.546;21.630;2023-11-18T00:40:29;99611.34;;;3.94;100.00
77939;BME280;67136;47.546;21.630;2023-11-18T00:43:32;99618.88;;;3.97;100.00
77939;BME280;67136;47.546;21.630;2023-11-18T00:46:35;99619.19;;;3.93;100.00
77939;BME280;67136;47.546;21.630;2023-11-18T00:49:38;99629.75;;;3.90;100.00
77939;BME280;67136;47.546;21.630;2023-11-18T00:52:42;99630.97;;;3.97;100.00
77939;BME280;67136;47.546;21.630;2023-11-18T00:55:45;99627.69;;;3.95;100.00
77939;BME280;67136;47.546;21.630;2023-11-18T00:58:48;99633.25;;;3.89;100.00
77939;BME280;67136;47.546;21.630;2023-11-18T01:01:52;99631.28;;;3.92;100.00
77939;BME280;67136;47.546;21.630;2023-11-18T01:04:57;99635.81;;;3.89;100.00
77939;BME280;67136;47.546;21.630;2023-11-18T01:08:02;99644.44;;;3.89;100.00
77939;BME280;67136;47.546;21.630;2023-11-18T01:11:05;99636.34;;;3.81;100.00
77939;BME280;67136;47.546;21.630;2023-11-18T01:14:10;99641.31;;;3.84;100.00
77939;BME280;67136;47.546;21.630;2023-11-18T01:17:14;99644.91;;;3.81;100.00
77939;BME280;67136;47.546;21.630;2023-11-18T01:20:16;99643.91;;;3.84;100.00
77939;BME280;67136;47.546;21.630;2023-11-18T01:23:27;99649.97;;;3.83;100.00
77939;BME280;67136;47.546;21.630;2023-11-18T01:26:29;99651.03;;;3.80;100.00
77939;BME280;67136;47.546;21.630;2023-11-18T01:29:32;99658.69;;;3.82;100.00
77939;BME280;67136;47.546;21.630;2023-11-18T01:32:35;99653.50;;;3.82;100.00
77939;BME280;67136;47.546;21.630;2023-11-18T01:35:38;99657.72;;;3.83;100.00
77939;BME280;67136;47.546;21.630;2023-11-18T01:38:41;99659.63;;;3.81;100.00
77939;BME280;67136;47.546;21.630;2023-11-18T01:41:44;99656.09;;;3.82;100.00
77939;BME280;67136;47.546;21.630;2023-11-18T01:44:48;99664.78;;;3.81;100.00
77939;BME280;67136;47.546;21.630;2023-11-18T01:47:51;99668.28;;;3.80;100.00
77939;BME280;67136;47.546;21.630;2023-11-18T01:50:59;99668.59;;;3.75;100.00
77939;BME280;67136;47.546;21.630;2023-11-18T01:54:04;99671.28;;;3.74;100.00
77939;BME280;67136;47.546;21.630;2023-11-18T01:57:09;99669.81;;;3.70;100.00
77939;BME280;67136;47.546;21.630;2023-11-18T02:00:13;99677.66;;;3.68;100.00
77939;BME280;67136;47.546;21.630;2023-11-18T02:03:17;99669.16;;;3.66;100.00
77939;BME280;67136;47.546;21.630;2023-11-18T02:06:20;99662.16;;;3.68;100.00
77939;BME280;67136;47.546;21.630;2023-11-18T02:09:27;99672.50;;;3.68;100.00
77939;BME280;67136;47.546;21.630;2023-11-18T02:13:03;99674.78;;;3.73;100.00
77939;BME280;67136;47.546;21.630;2023-11-18T02:16:08;99678.59;;;3.67;100.00
77939;BME280;67136;47.546;21.630;2023-11-18T02:19:20;99683.03;;;3.65;100.00
77939;BME280;67136;47.546;21.630;2023-11-18T02:22:25;99682.94;;;3.67;100.00
77939;BME280;67136;47.546;21.630;2023-11-18T02:25:29;99680.56;;;3.64;100.00
77939;BME280;67136;47.546;21.630;2023-11-18T02:28:32;99682.81;;;3.68;100.00
77939;BME280;67136;47.546;21.630;2023-11-18T02:31:36;99685.72;;;3.64;100.00
77939;BME280;67136;47.546;21.630;2023-11-18T02:34:45;99693.28;;;3.67;100.00
77939;BME280;67136;47.546;21.630;2023-11-18T02:37:52;99694.22;;;3.66;100.00
77939;BME280;67136;47.546;21.630;2023-11-18T02:40:58;99690.06;;;3.63;100.00
77939;BME280;67136;47.546;21.630;2023-11-18T02:44:04;99688.41;;;3.62;100.00
77939;BME280;67136;47.546;21.630;2023-11-18T02:47:10;99693.16;;;3.68;100.00
77939;BME280;67136;47.546;21.630;2023-11-18T02:50:14;99693.47;;;3.64;100.00
77939;BME280;67136;47.546;21.630;2023-11-18T02:53:18;99693.56;;;3.62;100.00
77939;BME280;67136;47.546;21.630;2023-11-18T02:56:25;99690.69;;;3.67;100.00
77939;BME280;67136;47.546;21.630;2023-11-18T02:59:29;99690.47;;;3.70;100.00
77939;BME280;67136;47.546;21.630;2023-11-18T03:02:33;99700.81;;;3.70;100.00
77939;BME280;67136;47.546;21.630;2023-11-18T03:05:36;99708.69;;;3.68;100.00
77939;BME280;67136;47.546;21.630;2023-11-18T03:08:39;99707.66;;;3.71;100.00
77939;BME280;67136;47.546;21.630;2023-11-18T03:11:44;99712.94;;;3.69;100.00
77939;BME280;67136;47.546;21.630;2023-11-18T03:14:46;99724.28;;;3.67;100.00
77939;BME280;67136;47.546;21.630;2023-11-18T03:17:50;99725.03;;;3.69;100.00
77939;BME280;67136;47.546;21.630;2023-11-18T03:20:55;99729.34;;;3.68;100.00
77939;BME280;67136;47.546;21.630;2023-11-18T03:23:58;99730.09;;;3.70;100.00
77939;BME280;67136;47.546;21.630;2023-11-18T03:27:00;99731.94;;;3.68;100.00
77939;BME280;67136;47.546;21.630;2023-11-18T03:30:07;99742.19;;;3.70;100.00
77939;BME280;67136;47.546;21.630;2023-11-18T03:33:12;99742.19;;;3.70;100.00
77939;BME280;67136;47.546;21.630;2023-11-18T03:36:16;99737.84;;;3.70;100.00
77939;BME280;67136;47.546;21.630;2023-11-18T03:39:23;99745.72;;;3.69;100.00
77939;BME280;67136;47.546;21.630;2023-11-18T03:42:28;99743.88;;;3.71;100.00
77939;BME280;67136;47.546;21.630;2023-11-18T03:45:33;99747.34;;;3.70;100.00
77939;BME280;67136;47.546;21.630;2023-11-18T03:48:36;99743.97;;;3.69;100.00
77939;BME280;67136;47.546;21.630;2023-11-18T03:51:39;99748.41;;;3.67;100.00
77939;BME280;67136;47.546;21.630;2023-11-18T03:54:41;99751.63;;;3.71;100.00
77939;BME280;67136;47.546;21.630;2023-11-18T03:57:44;99752.53;;;3.70;100.00
77939;BME280;67136;47.546;21.630;2023-11-18T04:00:48;99757.06;;;3.66;100.00
77939;BME280;67136;47.546;21.630;2023-11-18T04:03:51;99755.50;;;3.64;100.00
77939;BME280;67136;47.546;21.630;2023-11-18T04:06:53;99757.25;;;3.63;100.00
77939;BME280;67136;47.546;21.630;2023-11-18T04:09:56;99754.56;;;3.65;100.00
77939;BME280;67136;47.546;21.630;2023-11-18T04:12:58;99764.91;;;3.65;100.00
77939;BME280;67136;47.546;21.630;2023-11-18T04:16:01;99761.12;;;3.70;100.00
77939;BME280;67136;47.546;21.630;2023-11-18T04:19:06;99768.22;;;3.67;100.00
77939;BME280;67136;47.546;21.630;2023-11-18T04:22:09;99775.88;;;3.68;100.00
77939;BME280;67136;47.546;21.630;2023-11-18T04:25:12;99780.06;;;3.71;100.00
77939;BME280;67136;47.546;21.630;2023-11-18T04:28:15;99767.41;;;3.66;100.00
77939;BME280;67136;47.546;21.630;2023-11-18T04:31:18;99767.50;;;3.65;100.00
77939;BME280;67136;47.546;21.630;2023-11-18T04:34:22;99766.75;;;3.63;100.00
77939;BME280;67136;47.546;21.630;2023-11-18T04:37:26;99771.22;;;3.61;100.00
77939;BME280;67136;47.546;21.630;2023-11-18T04:40:28;99777.69;;;3.54;100.00
77939;BME280;67136;47.546;21.630;2023-11-18T04:43:37;99777.88;;;3.51;100.00
77939;BME280;67136;47.546;21.630;2023-11-18T04:46:47;99781.28;;;3.51;100.00
77939;BME280;67136;47.546;21.630;2023-11-18T04:49:52;99787.56;;;3.47;100.00
77939;BME280;67136;47.546;21.630;2023-11-18T04:52:56;99775.22;;;3.38;100.00
77939;BME280;67136;47.546;21.630;2023-11-18T04:56:01;99775.50;;;3.34;100.00
77939;BME280;67136;47.546;21.630;2023-11-18T04:59:06;99778.97;;;3.33;100.00
77939;BME280;67136;47.546;21.630;2023-11-18T05:02:08;99789.31;;;3.33;100.00
77939;BME280;67136;47.546;21.630;2023-11-18T05:05:11;99791.53;;;3.25;100.00
77939;BME280;67136;47.546;21.630;2023-11-18T05:08:20;99794.31;;;3.22;100.00
77939;BME280;67136;47.546;21.630;2023-11-18T05:11:23;99803.37;;;3.29;100.00
77939;BME280;67136;47.546;21.630;2023-11-18T05:14:26;99801.22;;;3.35;100.00
77939;BME280;67136;47.546;21.630;2023-11-18T05:17:29;99807.59;;;3.44;100.00
77939;BME280;67136;47.546;21.630;2023-11-18T05:20:32;99809.25;;;3.45;100.00
77939;BME280;67136;47.546;21.630;2023-11-18T05:23:37;99810.72;;;3.49;100.00
77939;BME280;67136;47.546;21.630;2023-11-18T05:26:39;99816.25;;;3.57;100.00
77939;BME280;67136;47.546;21.630;2023-11-18T05:29:43;99826.59;;;3.57;100.00
77939;BME280;67136;47.546;21.630;2023-11-18T05:32:48;99835.63;;;3.64;100.00
77939;BME280;67136;47.546;21.630;2023-11-18T05:35:51;99839.97;;;3.63;100.00
77939;BME280;67136;47.546;21.630;2023-11-18T05:38:54;99840.63;;;3.67;100.00
77939;BME280;67136;47.546;21.630;2023-11-18T05:41:57;99840.22;;;3.73;100.00
77939;BME280;67136;47.546;21.630;2023-11-18T05:45:00;99836.19;;;3.69;100.00
77939;BME280;67136;47.546;21.630;2023-11-18T05:48:06;99842.09;;;3.71;100.00
77939;BME280;67136;47.546;21.630;2023-11-18T05:51:11;99847.81;;;3.76;100.00
77939;BME280;67136;47.546;21.630;2023-11-18T05:54:14;99845.88;;;3.79;100.00
77939;BME280;67136;47.546;21.630;2023-11-18T05:57:19;99854.44;;;3.80;100.00
77939;BME280;67136;47.546;21.630;2023-11-18T06:00:24;99853.63;;;3.79;100.00
77939;BME280;67136;47.546;21.630;2023-11-18T06:03:41;99860.16;;;3.85;100.00
77939;BME280;67136;47.546;21.630;2023-11-18T06:06:44;99862.84;;;3.83;100.00
77939;BME280;67136;47.546;21.630;2023-11-18T06:09:47;99860.34;;;3.82;100.00
77939;BME280;67136;47.546;21.630;2023-11-18T06:12:49;99863.69;;;3.84;100.00
77939;BME280;67136;47.546;21.630;2023-11-18T06:15:52;99866.59;;;3.92;98.90
77939;BME280;67136;47.546;21.630;2023-11-18T06:18:56;99875.31;;;3.91;99.32
77939;BME280;67136;47.546;21.630;2023-11-18T06:22:02;99875.84;;;3.96;99.86
77939;BME280;67136;47.546;21.630;2023-11-18T06:25:05;99872.31;;;3.97;99.82
77939;BME280;67136;47.546;21.630;2023-11-18T06:28:10;99882.31;;;4.03;98.69
77939;BME280;67136;47.546;21.630;2023-11-18T06:31:14;99883.03;;;4.05;98.45
77939;BME280;67136;47.546;21.630;2023-11-18T06:34:17;99894.44;;;4.15;98.27
77939;BME280;67136;47.546;21.630;2023-11-18T06:37:25;99897.78;;;4.17;97.95
77939;BME280;67136;47.546;21.630;2023-11-18T06:40:35;99906.28;;;4.19;98.27
77939;BME280;67136;47.546;21.630;2023-11-18T06:43:41;99911.81;;;4.27;95.68
77939;BME280;67136;47.546;21.630;2023-11-18T06:47:04;99918.66;;;4.28;94.87
77939;BME280;67136;47.546;21.630;2023-11-18T06:50:11;99928.50;;;4.36;95.29
77939;BME280;67136;47.546;21.630;2023-11-18T06:53:17;99928.22;;;4.40;94.56
77939;BME280;67136;47.546;21.630;2023-11-18T06:56:19;99932.47;;;4.41;95.32
77939;BME280;67136;47.546;21.630;2023-11-18T06:59:22;99942.22;;;4.50;94.96
77939;BME280;67136;47.546;21.630;2023-11-18T07:02:24;99938.34;;;4.57;92.87
77939;BME280;67136;47.546;21.630;2023-11-18T07:05:30;99934.63;;;4.61;93.22
77939;BME280;67136;47.546;21.630;2023-11-18T07:08:35;99937.84;;;4.65;91.62
77939;BME280;67136;47.546;21.630;2023-11-18T07:11:39;99932.00;;;4.75;92.97
77939;BME280;67136;47.546;21.630;2023-11-18T07:14:43;99944.44;;;4.83;91.14
77939;BME280;67136;47.546;21.630;2023-11-18T07:17:48;99942.44;;;5.00;90.04
77939;BME280;67136;47.546;21.630;2023-11-18T07:20:50;99940.16;;;5.08;89.34
77939;BME280;67136;47.546;21.630;2023-11-18T07:23:56;99949.50;;;5.24;89.00
77939;BME280;67136;47.546;21.630;2023-11-18T07:27:01;99950.78;;;5.31;88.84
77939;BME280;67136;47.546;21.630;2023-11-18T07:30:07;99950.47;;;5.35;90.68
77939;BME280;67136;47.546;21.630;2023-11-18T07:33:09;99955.97;;;5.43;88.67
77939;BME280;67136;47.546;21.630;2023-11-18T07:36:12;99968.44;;;5.51;87.15
77939;BME280;67136;47.546;21.630;2023-11-18T07:39:14;99968.84;;;5.57;88.06
77939;BME280;67136;47.546;21.630;2023-11-18T07:42:27;99974.88;;;5.58;86.92
77939;BME280;67136;47.546;21.630;2023-11-18T07:45:39;99984.28;;;5.59;85.69
77939;BME280;67136;47.546;21.630;2023-11-18T07:48:42;99983.25;;;5.74;86.20
77939;BME280;67136;47.546;21.630;2023-11-18T07:51:44;99981.78;;;5.70;88.91
77939;BME280;67136;47.546;21.630;2023-11-18T07:54:47;99995.38;;;5.73;90.76
77939;BME280;67136;47.546;21.630;2023-11-18T07:57:54;99988.38;;;5.88;87.50
77939;BME280;67136;47.546;21.630;2023-11-18T08:00:57;99995.13;;;6.03;87.57
77939;BME280;67136;47.546;21.630;2023-11-18T08:04:01;99995.41;;;5.98;87.89
77939;BME280;67136;47.546;21.630;2023-11-18T08:07:11;100001.44;;;5.99;91.03
77939;BME280;67136;47.546;21.630;2023-11-18T08:10:14;99996.34;;;6.10;92.57
77939;BME280;67136;47.546;21.630;2023-11-18T08:13:21;100009.22;;;6.24;92.66
77939;BME280;67136;47.546;21.630;2023-11-18T08:16:24;100003.94;;;6.13;95.25
77939;BME280;67136;47.546;21.630;2023-11-18T08:19:28;100004.56;;;6.16;90.89
77939;BME280;67136;47.546;21.630;2023-11-18T08:22:31;100017.16;;;6.46;88.94
77939;BME280;67136;47.546;21.630;2023-11-18T08:25:34;100012.31;;;6.29;87.82
77939;BME280;67136;47.546;21.630;2023-11-18T08:28:41;100015.47;;;6.21;94.57
77939;BME280;67136;47.546;21.630;2023-11-18T08:31:46;100024.84;;;6.48;91.43
77939;BME280;67136;47.546;21.630;2023-11-18T08:34:50;100016.87;;;6.74;88.93
77939;BME280;67136;47.546;21.630;2023-11-18T08:37:53;100027.94;;;6.65;87.86
77939;BME280;67136;47.546;21.630;2023-11-18T08:40:57;100026.41;;;6.86;90.03
77939;BME280;67136;47.546;21.630;2023-11-18T08:43:59;100034.81;;;7.13;88.71
77939;BME280;67136;47.546;21.630;2023-11-18T08:47:23;100035.75;;;7.71;87.83
77939;BME280;67136;47.546;21.630;2023-11-18T08:50:27;100032.09;;;7.38;86.27
77939;BME280;67136;47.546;21.630;2023-11-18T08:53:31;100038.28;;;7.59;84.40
77939;BME280;67136;47.546;21.630;2023-11-18T08:56:43;100039.81;;;7.51;82.89
77939;BME280;67136;47.546;21.630;2023-11-18T08:59:49;100051.06;;;8.08;79.18
77939;BME280;67136;47.546;21.630;2023-11-18T09:02:53;100045.72;;;8.10;77.05
77939;BME280;67136;47.546;21.630;2023-11-18T09:05:57;100041.97;;;8.47;77.22
77939;BME280;67136;47.546;21.630;2023-11-18T09:09:02;100043.66;;;8.37;78.62
77939;BME280;67136;47.546;21.630;2023-11-18T09:12:12;100041.84;;;8.82;73.66
77939;BME280;67136;47.546;21.630;2023-11-18T09:15:16;100063.78;;;8.24;79.37
77939;BME280;67136;47.546;21.630;2023-11-18T09:18:30;100054.03;;;8.81;79.36
77939;BME280;67136;47.546;21.630;2023-11-18T09:21:36;100051.13;;;9.49;76.15
77939;BME280;67136;47.546;21.630;2023-11-18T09:24:38;100060.47;;;9.51;72.53
77939;BME280;67136;47.546;21.630;2023-11-18T09:27:43;100062.94;;;9.21;72.76
77939;BME280;67136;47.546;21.630;2023-11-18T09:30:50;100051.22;;;8.62;75.74
77939;BME280;67136;47.546;21.630;2023-11-18T09:33:58;100059.28;;;8.26;73.43
77939;BME280;67136;47.546;21.630;2023-11-18T09:37:03;100066.63;;;8.43;78.20
77939;BME280;67136;47.546;21.630;2023-11-18T09:40:08;100067.09;;;8.26;76.59
77939;BME280;67136;47.546;21.630;2023-11-18T09:43:17;100075.16;;;8.56;75.66
77939;BME280;67136;47.546;21.630;2023-11-18T09:46:26;100074.31;;;8.66;73.42
77939;BME280;67136;47.546;21.630;2023-11-18T09:49:40;100076.34;;;8.63;74.09
77939;BME280;67136;47.546;21.630;2023-11-18T09:52:48;100076.03;;;8.11;73.48
77939;BME280;67136;47.546;21.630;2023-11-18T09:56:04;100080.56;;;8.20;70.62
77939;BME280;67136;47.546;21.630;2023-11-18T09:59:32;100084.69;;;8.22;71.04
77939;BME280;67136;47.546;21.630;2023-11-18T10:02:43;100073.16;;;7.81;74.90
77939;BME280;67136;47.546;21.630;2023-11-18T10:05:51;100080.94;;;7.81;77.09
77939;BME280;67136;47.546;21.630;2023-11-18T10:08:57;100083.16;;;7.39;77.12
77939;BME280;67136;47.546;21.630;2023-11-18T10:11:59;100080.66;;;7.14;81.78
77939;BME280;67136;47.546;21.630;2023-11-18T10:15:08;100092.50;;;6.82;82.43
77939;BME280;67136;47.546;21.630;2023-11-18T10:18:14;100080.38;;;7.06;81.83
77939;BME280;67136;47.546;21.630;2023-11-18T10:21:34;100074.75;;;7.12;81.82
77939;BME280;67136;47.546;21.630;2023-11-18T10:24:48;100078.56;;;7.19;81.45
77939;BME280;67136;47.546;21.630;2023-11-18T10:27:51;100082.25;;;7.04;82.73
77939;BME280;67136;47.546;21.630;2023-11-18T10:30:56;100079.53;;;7.06;81.07
77939;BME280;67136;47.546;21.630;2023-11-18T10:34:06;100084.56;;;7.09;80.76
77939;BME280;67136;47.546;21.630;2023-11-18T10:37:13;100090.47;;;7.34;80.88
77939;BME280;67136;47.546;21.630;2023-11-18T10:40:16;100087.69;;;7.01;80.77
77939;BME280;67136;47.546;21.630;2023-11-18T10:43:21;100095.72;;;7.22;81.11
77939;BME280;67136;47.546;21.630;2023-11-18T10:46:27;100099.44;;;7.30;79.06
77939;BME280;67136;47.546;21.630;2023-11-18T10:49:31;100104.06;;;7.14;80.98
77939;BME280;67136;47.546;21.630;2023-11-18T10:52:40;100107.06;;;6.85;79.79
77939;BME280;67136;47.546;21.630;2023-11-18T10:55:44;100112.44;;;6.94;81.08
77939;BME280;67136;47.546;21.630;2023-11-18T10:58:46;100109.50;;;6.75;81.84
77939;BME280;67136;47.546;21.630;2023-11-18T11:01:51;100115.63;;;6.49;82.19
77939;BME280;67136;47.546;21.630;2023-11-18T11:04:54;100113.75;;;6.39;85.58
77939;BME280;67136;47.546;21.630;2023-11-18T11:07:58;100123.94;;;6.54;86.09
77939;BME280;67136;47.546;21.630;2023-11-18T11:11:03;100126.75;;;6.26;86.95
77939;BME280;67136;47.546;21.630;2023-11-18T11:14:12;100131.13;;;6.13;87.88
77939;BME280;67136;47.546;21.630;2023-11-18T11:17:19;100132.47;;;6.31;88.04
77939;BME280;67136;47.546;21.630;2023-11-18T11:20:34;100129.53;;;5.98;88.67
77939;BME280;67136;47.546;21.630;2023-11-18T11:23:53;100131.94;;;5.74;91.08
77939;BME280;67136;47.546;21.630;2023-11-18T11:30:13;100136.28;;;6.00;88.70
77939;BME280;67136;47.546;21.630;2023-11-18T11:33:29;100141.06;;;5.80;89.71
77939;BME280;67136;47.546;21.630;2023-11-18T11:36:46;100145.13;;;6.10;87.36
77939;BME280;67136;47.546;21.630;2023-11-18T11:39:56;100156.63;;;5.80;89.67
77939;BME280;67136;47.546;21.630;2023-11-18T11:43:06;100155.87;;;5.65;89.93
77939;BME280;67136;47.546;21.630;2023-11-18T11:46:16;100157.84;;;5.62;89.36
77939;BME280;67136;47.546;21.630;2023-11-18T11:49:27;100158.03;;;5.59;89.96
77939;BME280;67136;47.546;21.630;2023-11-18T11:52:50;100159.66;;;5.47;90.68
77939;BME280;67136;47.546;21.630;2023-11-18T11:55:56;100173.84;;;5.28;91.85
77939;BME280;67136;47.546;21.630;2023-11-18T11:59:09;100181.56;;;5.29;91.22
77939;BME280;67136;47.546;21.630;2023-11-18T12:02:15;100189.91;;;5.06;91.19
77939;BME280;67136;47.546;21.630;2023-11-18T12:05:25;100181.22;;;5.07;91.87
77939;BME280;67136;47.546;21.630;2023-11-18T12:08:29;100191.09;;;5.29;91.66
77939;BME280;67136;47.546;21.630;2023-11-18T12:11:35;100192.94;;;5.27;91.54
77939;BME280;67136;47.546;21.630;2023-11-18T12:21:05;100198.44;;;5.08;92.25
77939;BME280;67136;47.546;21.630;2023-11-18T12:24:17;100200.56;;;5.01;93.00
77939;BME280;67136;47.546;21.630;2023-11-18T12:30:44;100213.59;;;4.86;92.52
77939;BME280;67136;47.546;21.630;2023-11-18T12:34:08;100215.75;;;4.79;93.71
77939;BME280;67136;47.546;21.630;2023-11-18T12:40:54;100221.66;;;4.81;94.23
77939;BME280;67136;47.546;21.630;2023-11-18T12:47:51;100217.03;;;4.72;95.60
77939;BME280;67136;47.546;21.630;2023-11-18T12:50:58;100221.75;;;4.66;96.71
77939;BME280;67136;47.546;21.630;2023-11-18T12:54:04;100226.44;;;4.59;98.85
77939;BME280;67136;47.546;21.630;2023-11-18T12:57:11;100233.13;;;4.63;99.49
77939;BME280;67136;47.546;21.630;2023-11-18T13:00:17;100230.97;;;4.42;100.00
77939;BME280;67136;47.546;21.630;2023-11-18T13:03:29;100242.22;;;4.41;100.00
77939;BME280;67136;47.546;21.630;2023-11-18T13:06:32;100249.91;;;4.42;100.00
77939;BME280;67136;47.546;21.630;2023-11-18T13:09:36;100258.31;;;4.32;100.00
77939;BME280;67136;47.546;21.630;2023-11-18T13:12:38;100243.59;;;4.32;100.00
77939;BME280;67136;47.546;21.630;2023-11-18T13:15:41;100255.62;;;4.33;100.00
77939;BME280;67136;47.546;21.630;2023-11-18T13:18:45;100260.13;;;4.30;100.00
77939;BME280;67136;47.546;21.630;2023-11-18T13:21:55;100268.81;;;4.29;100.00
77939;BME280;67136;47.546;21.630;2023-11-18T13:24:58;100270.97;;;4.36;100.00
77939;BME280;67136;47.546;21.630;2023-11-18T13:28:04;100261.69;;;4.18;100.00
77939;BME280;67136;47.546;21.630;2023-11-18T13:31:07;100266.59;;;4.23;100.00
77939;BME280;67136;47.546;21.630;2023-11-18T13:34:14;100275.50;;;4.33;100.00
77939;BME280;67136;47.546;21.630;2023-11-18T13:37:19;100291.53;;;4.24;100.00
77939;BME280;67136;47.546;21.630;2023-11-18T13:40:25;100281.44;;;4.19;100.00
77939;BME280;67136;47.546;21.630;2023-11-18T13:43:28;100290.72;;;4.23;100.00
77939;BME280;67136;47.546;21.630;2023-11-18T13:46:31;100285.88;;;4.17;100.00
77939;BME280;67136;47.546;21.630;2023-11-18T13:49:37;100298.78;;;4.33;100.00
77939;BME280;67136;47.546;21.630;2023-11-18T13:52:42;100301.56;;;4.14;100.00
77939;BME280;67136;47.546;21.630;2023-11-18T13:55:47;100319.69;;;4.14;100.00
77939;BME280;67136;47.546;21.630;2023-11-18T13:58:54;100315.75;;;4.07;100.00
77939;BME280;67136;47.546;21.630;2023-11-18T14:02:01;100321.03;;;4.06;100.00
77939;BME280;67136;47.546;21.630;2023-11-18T14:05:17;100321.28;;;4.01;100.00
77939;BME280;67136;47.546;21.630;2023-11-18T14:08:22;100333.88;;;4.07;100.00
77939;BME280;67136;47.546;21.630;2023-11-18T14:11:26;100330.88;;;3.99;100.00
77939;BME280;67136;47.546;21.630;2023-11-18T14:14:31;100337.22;;;3.94;100.00
77939;BME280;67136;47.546;21.630;2023-11-18T14:17:38;100338.41;;;3.88;100.00
77939;BME280;67136;47.546;21.630;2023-11-18T14:20:41;100335.06;;;3.86;100.00
77939;BME280;67136;47.546;21.630;2023-11-18T14:23:45;100350.31;;;3.91;100.00
77939;BME280;67136;47.546;21.630;2023-11-18T14:26:47;100351.97;;;3.76;100.00
77939;BME280;67136;47.546;21.630;2023-11-18T14:29:53;100360.34;;;3.81;100.00
77939;BME280;67136;47.546;21.630;2023-11-18T14:32:59;100365.63;;;3.78;100.00
77939;BME280;67136;47.546;21.630;2023-11-18T14:36:05;100374.16;;;3.80;100.00
77939;BME280;67136;47.546;21.630;2023-11-18T14:39:08;100373.72;;;3.72;100.00
77939;BME280;67136;47.546;21.630;2023-11-18T14:42:12;100376.31;;;3.72;100.00
77939;BME280;67136;47.546;21.630;2023-11-18T14:45:17;100379.16;;;3.67;100.00
77939;BME280;67136;47.546;21.630;2023-11-18T14:48:21;100375.31;;;3.59;100.00
77939;BME280;67136;47.546;21.630;2023-11-18T14:51:23;100369.97;;;3.62;100.00
77939;BME280;67136;47.546;21.630;2023-11-18T14:54:26;100383.06;;;3.59;100.00
77939;BME280;67136;47.546;21.630;2023-11-18T14:57:29;100387.81;;;3.51;100.00
77939;BME280;67136;47.546;21.630;2023-11-18T15:00:32;100397.31;;;3.50;100.00
77939;BME280;67136;47.546;21.630;2023-11-18T15:03:35;100395.78;;;3.46;100.00
77939;BME280;67136;47.546;21.630;2023-11-18T15:06:39;100411.19;;;3.48;100.00
77939;BME280;67136;47.546;21.630;2023-11-18T15:09:43;100412.44;;;3.41;100.00
77939;BME280;67136;47.546;21.630;2023-11-18T15:12:50;100406.34;;;3.42;100.00
77939;BME280;67136;47.546;21.630;2023-11-18T15:16:00;100410.84;;;3.38;100.00
77939;BME280;67136;47.546;21.630;2023-11-18T15:19:03;100413.94;;;3.45;100.00
77939;BME280;67136;47.546;21.630;2023-11-18T15:22:06;100409.28;;;3.36;100.00
77939;BME280;67136;47.546;21.630;2023-11-18T15:25:09;100419.28;;;3.42;100.00
77939;BME280;67136;47.546;21.630;2023-11-18T15:28:15;100421.62;;;3.29;100.00
77939;BME280;67136;47.546;21.630;2023-11-18T15:31:20;100433.75;;;3.29;100.00
77939;BME280;67136;47.546;21.630;2023-11-18T15:34:23;100442.38;;;3.28;100.00
77939;BME280;67136;47.546;21.630;2023-11-18T15:37:27;100427.72;;;3.28;100.00
77939;BME280;67136;47.546;21.630;2023-11-18T15:40:32;100436.53;;;3.24;100.00
77939;BME280;67136;47.546;21.630;2023-11-18T15:43:39;100442.38;;;3.28;100.00
77939;BME280;67136;47.546;21.630;2023-11-18T15:46:47;100446.59;;;3.30;100.00
77939;BME280;67136;47.546;21.630;2023-11-18T15:49:53;100444.25;;;3.26;100.00
77939;BME280;67136;47.546;21.630;2023-11-18T15:52:56;100450.13;;;3.28;100.00
77939;BME280;67136;47.546;21.630;2023-11-18T15:55:59;100444.25;;;3.26;100.00
77939;BME280;67136;47.546;21.630;2023-11-18T15:59:08;100457.16;;;3.26;100.00
77939;BME280;67136;47.546;21.630;2023-11-18T16:02:11;100461.84;;;3.18;100.00
77939;BME280;67136;47.546;21.630;2023-11-18T16:05:18;100463.69;;;3.16;100.00
77939;BME280;67136;47.546;21.630;2023-11-18T16:08:21;100459.41;;;3.15;100.00
77939;BME280;67136;47.546;21.630;2023-11-18T16:11:24;100457.00;;;3.12;100.00
77939;BME280;67136;47.546;21.630;2023-11-18T16:14:29;100457.34;;;3.04;100.00
77939;BME280;67136;47.546;21.630;2023-11-18T16:17:33;100470.28;;;3.04;100.00
77939;BME280;67136;47.546;21.630;2023-11-18T16:20:36;100471.66;;;3.11;100.00
77939;BME280;67136;47.546;21.630;2023-11-18T16:23:39;100474.16;;;3.13;100.00
77939;BME280;67136;47.546;21.630;2023-11-18T16:26:42;100479.19;;;3.16;100.00